createdAt,value
2023-06-20T00:00:26.476Z,4.10
2023-06-20T00:02:54.326Z,4.32
2023-06-20T00:05:22.558Z,4.38
2023-06-20T00:07:51.723Z,4.40
2023-06-20T00:10:19.577Z,4.28
2023-06-20T00:12:47.527Z,4.00
2023-06-20T00:15:15.407Z,4.18
2023-06-20T00:17:43.267Z,4.18
2023-06-20T00:20:11.712Z,4.32
2023-06-20T00:22:39.608Z,4.38
2023-06-20T00:25:09.418Z,4.68
2023-06-20T00:27:37.371Z,4.03
2023-06-20T00:30:05.934Z,3.75
2023-06-20T00:32:34.534Z,4.57
2023-06-20T00:35:02.454Z,3.88
2023-06-20T00:37:30.413Z,4.03
2023-06-20T00:39:58.360Z,3.92
2023-06-20T00:42:27.831Z,4.25
2023-06-20T00:44:56.189Z,4.07
2023-06-20T00:47:25.184Z,4.07
2023-06-20T00:49:55.158Z,4.18
2023-06-20T00:52:24.117Z,4.28
2023-06-20T00:54:51.956Z,3.55
2023-06-20T00:57:21.780Z,4.03
2023-06-20T00:59:52.143Z,4.40
2023-06-20T01:02:21.713Z,4.50
2023-06-20T01:04:50.030Z,4.30
2023-06-20T01:07:26.162Z,4.88
2023-06-20T01:10:00.214Z,4.55
2023-06-20T01:12:34.840Z,4.15
2023-06-20T01:15:15.101Z,4.40
2023-06-20T01:17:47.814Z,4.75
2023-06-20T01:20:20.622Z,4.07
2023-06-20T01:22:58.498Z,4.38
2023-06-20T01:25:34.578Z,4.30
2023-06-20T01:28:08.447Z,4.80
2023-06-20T01:30:43.352Z,4.80
2023-06-20T01:33:14.934Z,5.15
2023-06-20T01:35:45.102Z,4.80
2023-06-20T01:38:16.870Z,4.53
2023-06-20T01:40:50.445Z,4.63
2023-06-20T01:43:20.698Z,4.60
2023-06-20T01:45:51.210Z,5.10
2023-06-20T01:48:22.154Z,4.82
2023-06-20T01:50:51.524Z,4.68
2023-06-20T01:53:22.451Z,4.93
2023-06-20T01:55:51.683Z,5.03
2023-06-20T01:58:20.739Z,4.75
2023-06-20T02:00:50.246Z,5.00
2023-06-20T02:03:21.009Z,4.50
2023-06-20T02:05:50.497Z,4.93
2023-06-20T02:08:20.569Z,4.28
2023-06-20T02:10:48.845Z,4.95
2023-06-20T02:13:17.438Z,4.65
2023-06-20T02:15:46.516Z,4.80
2023-06-20T02:18:14.445Z,5.35
2023-06-20T02:20:42.799Z,4.43
2023-06-20T02:23:12.147Z,4.45
2023-06-20T02:25:46.846Z,5.30
2023-06-20T02:28:16.335Z,4.60
2023-06-20T02:30:50.062Z,5.07
2023-06-20T02:33:20.975Z,5.30
2023-06-20T02:35:51.842Z,5.25
2023-06-20T02:38:19.719Z,5.60
2023-06-20T02:40:51.593Z,5.53
2023-06-20T02:43:19.565Z,5.75
2023-06-20T02:45:52.603Z,5.75
2023-06-20T02:48:29.424Z,5.75
2023-06-20T02:51:07.624Z,4.60
2023-06-20T02:53:45.387Z,4.95
2023-06-20T02:56:17.042Z,5.07
2023-06-20T02:58:48.906Z,5.25
2023-06-20T03:01:24.292Z,5.45
2023-06-20T03:03:55.250Z,5.30
2023-06-20T03:06:28.219Z,5.72
2023-06-20T03:08:59.623Z,5.35
2023-06-20T03:11:29.240Z,4.80
2023-06-20T03:13:57.302Z,5.60
2023-06-20T03:16:27.718Z,5.70
2023-06-20T03:18:55.948Z,4.88
2023-06-20T03:21:29.420Z,5.50
2023-06-20T03:24:00.070Z,5.57
2023-06-20T03:26:29.843Z,5.70
2023-06-20T03:28:58.428Z,5.30
2023-06-20T03:31:27.533Z,5.28
2023-06-20T03:33:55.398Z,5.38
2023-06-20T03:36:23.274Z,5.60
2023-06-20T03:38:53.326Z,5.38
2023-06-20T03:41:23.022Z,5.22
2023-06-20T03:43:52.399Z,5.22
2023-06-20T03:46:20.279Z,5.18
2023-06-20T03:48:49.704Z,5.82
2023-06-20T03:51:18.637Z,4.55
2023-06-20T03:53:46.578Z,5.60
2023-06-20T03:56:14.561Z,6.18
2023-06-20T03:58:42.867Z,6.07
2023-06-20T04:01:12.034Z,5.07
2023-06-20T04:03:39.884Z,6.00
2023-06-20T04:06:07.894Z,5.50
2023-06-20T04:08:36.657Z,5.97
2023-06-20T04:11:04.694Z,6.20
2023-06-20T04:13:32.537Z,6.25
2023-06-20T04:16:00.480Z,6.43
2023-06-20T04:18:31.377Z,6.40
2023-06-20T04:20:59.379Z,7.50
2023-06-20T04:23:27.609Z,7.97
2023-06-20T04:25:55.544Z,8.23
2023-06-20T04:28:23.452Z,8.13
2023-06-20T04:30:57.971Z,6.75
2023-06-20T04:33:26.386Z,8.60
2023-06-20T04:35:58.900Z,8.93
2023-06-20T04:38:32.672Z,7.50
2023-06-20T04:41:01.970Z,9.40
2023-06-20T04:43:30.132Z,7.78
2023-06-20T04:45:58.593Z,8.65
2023-06-20T04:48:29.507Z,8.70
2023-06-20T04:50:59.312Z,9.60
2023-06-20T04:53:27.441Z,10.15
2023-06-20T04:55:55.672Z,8.98
2023-06-20T04:58:23.561Z,8.07
2023-06-20T05:00:53.128Z,9.20
2023-06-20T05:03:21.622Z,10.57
2023-06-20T05:05:49.552Z,8.38
2023-06-20T05:08:18.876Z,8.27
2023-06-20T05:10:46.928Z,9.23
2023-06-20T05:13:14.754Z,8.68
2023-06-20T05:15:42.649Z,9.30
2023-06-20T05:18:10.547Z,8.65
2023-06-20T05:20:38.401Z,8.20
2023-06-20T05:23:06.329Z,7.85
2023-06-20T05:25:35.749Z,8.88
2023-06-20T05:28:06.514Z,7.72
2023-06-20T05:30:34.654Z,7.88
2023-06-20T05:33:02.539Z,9.52
2023-06-20T05:35:30.505Z,9.13
2023-06-20T05:37:58.333Z,11.05
2023-06-20T05:40:26.611Z,8.75
2023-06-20T05:42:56.028Z,8.50
2023-06-20T05:45:23.872Z,9.40
2023-06-20T05:47:51.748Z,10.02
2023-06-20T05:50:19.672Z,10.70
2023-06-20T05:52:47.491Z,9.48
2023-06-20T05:55:15.376Z,10.57
2023-06-20T05:57:43.162Z,10.98
2023-06-20T06:00:13.849Z,9.35
2023-06-20T06:02:47.629Z,10.13
2023-06-20T06:05:15.563Z,8.68
2023-06-20T06:07:43.379Z,9.60
2023-06-20T06:10:11.803Z,8.57
2023-06-20T06:12:41.726Z,11.82
2023-06-20T06:15:10.940Z,10.55
2023-06-20T06:17:40.204Z,9.85
2023-06-20T06:20:12.574Z,8.80
2023-06-20T06:25:09.161Z,9.07
2023-06-20T06:27:37.095Z,11.73
2023-06-20T06:30:05.557Z,9.00
2023-06-20T06:32:35.945Z,8.55
2023-06-20T06:35:06.103Z,9.23
2023-06-20T06:37:34.694Z,7.97
2023-06-20T06:40:05.065Z,8.88
2023-06-20T06:42:32.901Z,10.52
2023-06-20T06:45:03.769Z,9.45
2023-06-20T06:47:31.672Z,10.10
2023-06-20T06:49:59.565Z,11.18
2023-06-20T06:52:28.907Z,10.02
2023-06-20T06:54:56.995Z,10.48
2023-06-20T06:57:24.792Z,10.43
2023-06-20T06:59:52.685Z,9.15
2023-06-20T07:02:21.693Z,9.82
2023-06-20T07:04:49.572Z,9.35
2023-06-20T07:07:17.376Z,9.88
2023-06-20T07:09:46.602Z,9.75
2023-06-20T07:12:15.098Z,10.20
2023-06-20T07:14:42.975Z,11.15
2023-06-20T07:17:10.891Z,9.35
2023-06-20T07:19:38.780Z,9.43
2023-06-20T07:22:07.198Z,11.43
2023-06-20T07:24:35.093Z,9.90
2023-06-20T07:27:04.510Z,12.57
2023-06-20T07:29:32.511Z,12.75
2023-06-20T07:32:00.530Z,9.10
2023-06-20T07:34:28.452Z,10.57
2023-06-20T07:36:56.261Z,10.10
2023-06-20T07:39:24.200Z,10.15
2023-06-20T07:41:52.005Z,9.13
2023-06-20T07:44:21.190Z,11.27
2023-06-20T07:46:49.074Z,8.90
2023-06-20T07:49:16.892Z,8.23
2023-06-20T07:51:47.340Z,11.00
2023-06-20T07:54:16.444Z,9.50
2023-06-20T07:56:44.374Z,10.20
2023-06-20T07:59:12.359Z,9.65
2023-06-20T08:01:41.600Z,11.07
2023-06-20T08:04:09.540Z,12.15
2023-06-20T08:06:37.403Z,11.13
2023-06-20T08:09:06.247Z,11.02
2023-06-20T08:11:35.589Z,10.70
2023-06-20T08:14:03.658Z,10.95
2023-06-20T08:16:31.513Z,9.57
2023-06-20T08:19:00.912Z,11.02
2023-06-20T08:21:28.773Z,11.52
2023-06-20T08:23:56.856Z,10.02
2023-06-20T08:26:24.740Z,10.15
2023-06-20T08:28:52.567Z,10.00
2023-06-20T08:31:20.418Z,9.23
2023-06-20T08:33:48.329Z,10.57
2023-06-20T08:36:17.507Z,9.00
2023-06-20T08:38:45.353Z,9.88
2023-06-20T08:41:13.215Z,10.32
2023-06-20T08:43:41.461Z,9.63
2023-06-20T08:46:09.329Z,9.27
2023-06-20T08:48:37.223Z,10.10
2023-06-20T08:51:05.125Z,9.20
2023-06-20T08:53:35.039Z,9.90
2023-06-20T08:56:04.162Z,10.55
2023-06-20T08:58:33.588Z,11.57
2023-06-20T09:01:01.472Z,11.20
2023-06-20T09:03:29.801Z,10.80
2023-06-20T09:05:59.028Z,11.00
2023-06-20T09:08:38.341Z,11.15
2023-06-20T09:11:07.856Z,11.13
2023-06-20T09:13:35.950Z,9.63
2023-06-20T09:16:08.450Z,10.60
2023-06-20T09:18:36.932Z,9.45
2023-06-20T09:21:05.463Z,9.60
2023-06-20T09:23:34.533Z,10.50
2023-06-20T09:26:15.052Z,9.68
2023-06-20T09:28:42.943Z,8.68
2023-06-20T09:31:10.866Z,9.63
2023-06-20T09:33:39.356Z,8.75
2023-06-20T09:36:14.645Z,9.05
2023-06-20T09:38:44.277Z,8.00
2023-06-20T09:41:18.242Z,9.63
2023-06-20T09:43:46.316Z,9.23
2023-06-20T09:46:15.365Z,8.10
2023-06-20T09:48:45.614Z,8.10
2023-06-20T09:51:13.472Z,6.95
2023-06-20T09:53:46.642Z,7.50
2023-06-20T09:56:16.339Z,6.90
2023-06-20T09:58:47.135Z,7.25
2023-06-20T10:01:16.495Z,7.00
2023-06-20T10:03:45.274Z,7.20
2023-06-20T10:06:13.440Z,7.03
2023-06-20T10:08:42.427Z,8.60
2023-06-20T10:11:10.287Z,7.35
2023-06-20T10:13:38.267Z,6.88
2023-06-20T10:16:07.724Z,6.85
2023-06-20T10:18:39.835Z,7.57
2023-06-20T10:21:08.320Z,7.05
2023-06-20T10:23:38.560Z,6.72
2023-06-20T10:26:09.237Z,6.90
2023-06-20T10:28:39.003Z,7.82
2023-06-20T10:31:08.395Z,6.75
2023-06-20T10:33:37.529Z,7.43
2023-06-20T10:36:07.560Z,6.28
2023-06-20T10:38:38.605Z,6.85
2023-06-20T10:41:11.367Z,6.55
2023-06-20T10:43:48.966Z,6.72
2023-06-20T10:46:19.105Z,5.95
2023-06-20T10:48:47.203Z,6.25
2023-06-20T10:51:15.164Z,5.80
2023-06-20T10:53:42.975Z,6.55
2023-06-20T10:56:23.649Z,5.93
2023-06-20T10:58:51.559Z,6.03
2023-06-20T11:01:20.980Z,5.93
2023-06-20T11:03:50.369Z,5.78
2023-06-20T11:06:18.408Z,5.97
2023-06-20T11:08:47.110Z,6.28
2023-06-20T11:11:14.998Z,5.80
2023-06-20T11:13:44.797Z,5.20
2023-06-20T11:16:19.230Z,5.25
2023-06-20T11:18:48.619Z,5.85
2023-06-20T11:21:17.518Z,5.35
2023-06-20T11:23:45.347Z,5.32
2023-06-20T11:26:13.147Z,5.15
2023-06-20T11:28:40.992Z,4.82
2023-06-20T11:31:12.448Z,5.55
2023-06-20T11:33:40.468Z,4.90
2023-06-20T11:36:10.601Z,5.03
2023-06-20T11:38:40.597Z,5.00
2023-06-20T11:41:10.009Z,5.70
2023-06-20T11:43:39.687Z,5.57
2023-06-20T11:46:08.650Z,5.03
2023-06-20T11:48:37.498Z,5.22
2023-06-20T11:51:06.906Z,5.30
2023-06-20T11:53:37.416Z,5.10
2023-06-20T11:58:40.453Z,5.22
2023-06-20T12:01:12.183Z,5.75
2023-06-20T12:03:42.662Z,5.60
2023-06-20T12:06:30.584Z,5.15
2023-06-20T12:09:01.554Z,5.95
2023-06-20T12:11:29.712Z,5.10
2023-06-20T12:13:57.924Z,5.05
2023-06-20T12:16:27.219Z,5.45
2023-06-20T12:18:57.886Z,4.95
2023-06-20T12:21:25.757Z,5.65
2023-06-20T12:23:53.649Z,5.20
2023-06-20T12:26:23.342Z,5.25
2023-06-20T12:28:51.326Z,4.70
2023-06-20T12:31:19.164Z,4.63
2023-06-20T12:33:47.043Z,5.35
2023-06-20T12:36:16.682Z,5.75
2023-06-20T12:38:44.768Z,5.20
2023-06-20T12:41:12.865Z,5.00
2023-06-20T12:43:42.187Z,5.28
2023-06-20T12:46:11.358Z,5.70
2023-06-20T12:48:39.355Z,5.63
2023-06-20T12:51:07.218Z,4.95
2023-06-20T12:53:36.343Z,4.97
2023-06-20T12:56:04.561Z,5.28
2023-06-20T12:58:33.777Z,5.25
2023-06-20T13:01:03.518Z,5.03
2023-06-20T13:03:31.391Z,5.22
2023-06-20T13:05:59.444Z,7.47
2023-06-20T13:08:27.966Z,5.00
2023-06-20T13:10:55.820Z,5.60
2023-06-20T13:13:23.657Z,5.30
2023-06-20T13:15:51.522Z,5.13
2023-06-20T13:18:21.673Z,5.72
2023-06-20T13:20:49.858Z,5.13
2023-06-20T13:23:17.741Z,5.55
2023-06-20T13:25:46.025Z,5.00
2023-06-20T13:28:14.140Z,5.57
2023-06-20T13:30:44.253Z,4.93
2023-06-20T13:33:12.310Z,5.90
2023-06-20T13:35:41.522Z,5.60
2023-06-20T13:38:09.822Z,5.30
2023-06-20T13:40:37.846Z,5.78
2023-06-20T13:43:07.803Z,5.85
2023-06-20T13:45:36.231Z,5.28
2023-06-20T13:48:04.153Z,5.50
2023-06-20T13:50:32.018Z,5.32
2023-06-20T13:53:01.213Z,5.10
2023-06-20T13:55:29.031Z,5.63
2023-06-20T13:57:56.901Z,5.38
2023-06-20T14:00:25.024Z,5.40
2023-06-20T14:02:53.151Z,5.80
2023-06-20T14:05:21.323Z,5.30
2023-06-20T14:07:50.393Z,5.45
2023-06-20T14:10:19.602Z,5.75
2023-06-20T14:12:49.116Z,5.03
2023-06-20T14:15:17.226Z,5.60
2023-06-20T14:17:45.236Z,5.43
2023-06-20T14:20:13.572Z,5.22
2023-06-20T14:22:41.588Z,5.05
2023-06-20T14:25:09.495Z,5.22
2023-06-20T14:27:38.707Z,4.95
2023-06-20T14:30:08.648Z,5.75
2023-06-20T14:32:36.651Z,5.10
2023-06-20T14:35:04.830Z,5.00
2023-06-20T14:37:32.647Z,5.03
2023-06-20T14:40:00.522Z,5.10
2023-06-20T14:42:28.346Z,5.22
2023-06-20T14:44:57.559Z,4.80
2023-06-20T14:47:25.539Z,4.88
2023-06-20T14:49:53.476Z,4.95
2023-06-20T14:52:21.404Z,5.05
2023-06-20T14:54:49.213Z,4.72
2023-06-20T14:57:17.050Z,5.00
2023-06-20T14:59:44.906Z,4.53
2023-06-20T15:02:14.131Z,5.25
2023-06-20T15:04:42.016Z,5.00
2023-06-20T15:07:09.849Z,5.50
2023-06-20T15:09:37.674Z,4.95
2023-06-20T15:12:06.369Z,4.85
2023-06-20T15:14:36.128Z,5.50
2023-06-20T15:17:04.051Z,5.25
2023-06-20T15:19:33.806Z,5.32
2023-06-20T15:22:01.736Z,5.43
2023-06-20T15:24:33.497Z,4.97
2023-06-20T15:27:01.708Z,5.30
2023-06-20T15:29:29.597Z,5.03
2023-06-20T15:31:57.455Z,5.40
2023-06-20T15:34:25.393Z,5.60
2023-06-20T15:36:54.601Z,4.97
2023-06-20T15:39:22.413Z,4.97
2023-06-20T15:41:50.632Z,4.78
2023-06-20T15:44:18.658Z,4.65
2023-06-20T15:46:54.071Z,4.80
2023-06-20T15:49:23.136Z,5.25
2023-06-20T15:51:51.203Z,5.22
2023-06-20T15:54:20.777Z,4.80
2023-06-20T15:56:48.680Z,5.13
2023-06-20T15:59:17.684Z,4.47
2023-06-20T16:01:46.238Z,5.50
2023-06-20T16:04:14.362Z,5.15
2023-06-20T16:06:42.278Z,4.63
2023-06-20T16:09:10.495Z,5.50
2023-06-20T16:11:39.741Z,4.90
2023-06-20T16:14:07.720Z,5.80
2023-06-20T16:16:35.638Z,5.43
2023-06-20T16:19:03.645Z,6.57
2023-06-20T16:21:32.588Z,5.70
2023-06-20T16:24:00.612Z,5.55
2023-06-20T16:26:28.736Z,5.57
2023-06-20T16:28:57.972Z,5.45
2023-06-20T16:31:25.908Z,5.70
2023-06-20T16:33:55.312Z,5.22
2023-06-20T16:36:23.155Z,5.50
2023-06-20T16:38:52.258Z,5.10
2023-06-20T16:41:20.116Z,5.70
2023-06-20T16:43:47.986Z,5.40
2023-06-20T16:46:17.890Z,4.90
2023-06-20T16:48:47.451Z,4.65
2023-06-20T16:51:16.705Z,4.90
2023-06-20T16:53:45.535Z,5.10
2023-06-20T16:56:13.478Z,5.63
2023-06-20T16:58:41.305Z,5.15
2023-06-20T17:01:11.604Z,4.93
2023-06-20T17:03:40.956Z,5.18
2023-06-20T17:06:08.815Z,5.30
2023-06-20T17:08:36.696Z,5.13
2023-06-20T17:11:04.559Z,5.28
2023-06-20T17:13:32.418Z,5.90
2023-06-20T17:16:00.230Z,5.30
2023-06-20T17:18:28.054Z,5.65
2023-06-20T17:20:57.341Z,5.40
2023-06-20T17:23:25.237Z,5.38
2023-06-20T17:25:53.117Z,5.28
2023-06-20T17:28:21.397Z,5.47
2023-06-20T17:30:49.236Z,5.10
2023-06-20T17:33:17.560Z,5.57
2023-06-20T17:35:45.425Z,5.40
2023-06-20T17:38:14.835Z,5.50
2023-06-20T17:40:43.311Z,5.97
2023-06-20T17:43:11.189Z,5.95
2023-06-20T17:45:39.092Z,5.35
2023-06-20T17:48:07.086Z,5.90
2023-06-20T17:50:35.031Z,5.65
2023-06-20T17:53:02.892Z,5.63
2023-06-20T17:55:32.120Z,5.78
2023-06-20T17:58:02.328Z,5.35
2023-06-20T18:00:31.638Z,5.53
2023-06-20T18:02:59.749Z,24.45
2023-06-20T18:05:28.158Z,6.38
2023-06-20T18:07:57.580Z,5.95
2023-06-20T18:10:27.130Z,5.80
2023-06-20T18:12:57.485Z,6.10
2023-06-20T18:15:27.022Z,5.93
2023-06-20T18:17:55.169Z,5.85
2023-06-20T18:20:23.396Z,6.53
2023-06-20T18:22:51.501Z,6.03
2023-06-20T18:25:19.691Z,6.10
2023-06-20T18:27:47.532Z,6.10
2023-06-20T18:30:16.936Z,6.00
2023-06-20T18:32:44.870Z,6.45
2023-06-20T18:35:12.735Z,5.93
2023-06-20T18:37:41.283Z,5.95
2023-06-20T18:40:10.190Z,6.55
2023-06-20T18:42:38.060Z,6.00
2023-06-20T18:45:06.974Z,6.50
2023-06-20T18:47:38.950Z,6.43
2023-06-20T18:50:08.251Z,7.00
2023-06-20T18:52:39.522Z,6.63
2023-06-20T18:55:08.548Z,5.93
2023-06-20T18:57:36.503Z,6.50
2023-06-20T19:00:05.449Z,6.15
2023-06-20T19:02:33.448Z,6.97
2023-06-20T19:05:04.091Z,7.25
2023-06-20T19:07:32.170Z,6.47
2023-06-20T19:10:00.711Z,6.40
2023-06-20T19:12:28.755Z,6.82
2023-06-20T19:14:57.650Z,6.50
2023-06-20T19:17:27.576Z,6.60
2023-06-20T19:19:56.314Z,7.45
2023-06-20T19:22:25.855Z,7.07
2023-06-20T19:24:53.725Z,7.45
2023-06-20T19:27:21.587Z,7.47
2023-06-20T19:29:49.412Z,7.13
2023-06-20T19:32:17.335Z,6.93
2023-06-20T19:34:46.196Z,7.30
2023-06-20T19:37:14.989Z,7.28
2023-06-20T19:39:44.343Z,7.28
2023-06-20T19:42:12.366Z,7.40
2023-06-20T19:44:40.481Z,7.00
2023-06-20T19:47:08.479Z,7.53
2023-06-20T19:49:36.384Z,7.00
2023-06-20T19:52:04.522Z,6.95
2023-06-20T19:54:32.384Z,6.82
2023-06-20T19:57:03.856Z,6.95
2023-06-20T19:59:32.009Z,6.82
2023-06-20T20:02:00.188Z,6.65
2023-06-20T20:04:30.091Z,7.50
2023-06-20T20:06:57.953Z,7.32
2023-06-20T20:09:26.043Z,7.95
2023-06-20T20:11:53.901Z,7.55
2023-06-20T20:14:23.150Z,7.18
2023-06-20T20:16:51.064Z,7.93
2023-06-20T20:19:18.895Z,6.93
2023-06-20T20:21:47.419Z,7.93
2023-06-20T20:24:15.837Z,7.82
2023-06-20T20:26:43.754Z,7.25
2023-06-20T20:29:11.620Z,7.25
2023-06-20T20:31:40.909Z,7.93
2023-06-20T20:34:09.148Z,8.38
2023-06-20T20:36:37.002Z,8.40
2023-06-20T20:39:04.873Z,8.02
2023-06-20T20:41:32.977Z,8.30
2023-06-20T20:44:00.902Z,7.60
2023-06-20T20:46:28.769Z,8.35
2023-06-20T20:48:58.982Z,8.52
2023-06-20T20:51:27.162Z,9.60
2023-06-20T20:53:55.017Z,8.45
2023-06-20T20:56:22.820Z,8.77
2023-06-20T20:58:50.683Z,9.13
2023-06-20T21:01:18.544Z,8.73
2023-06-20T21:03:47.371Z,9.20
2023-06-20T21:06:16.655Z,7.82
2023-06-20T21:08:44.527Z,9.00
2023-06-20T21:11:12.784Z,8.75
2023-06-20T21:13:40.602Z,8.35
2023-06-20T21:16:12.467Z,9.23
2023-06-20T21:18:40.443Z,8.25
2023-06-20T21:21:08.519Z,9.35
2023-06-20T21:23:38.733Z,9.23
2023-06-20T21:26:06.632Z,9.30
2023-06-20T21:28:34.652Z,10.18
2023-06-20T21:31:03.653Z,9.40
2023-06-20T21:33:32.653Z,9.45
2023-06-20T21:36:01.086Z,9.00
2023-06-20T21:38:29.814Z,9.48
2023-06-20T21:40:59.353Z,10.02
2023-06-20T21:43:27.257Z,9.60
2023-06-20T21:45:55.158Z,9.43
2023-06-20T21:48:23.105Z,9.73
2023-06-20T21:50:50.934Z,9.02
2023-06-20T21:53:19.123Z,9.75
2023-06-20T21:55:47.240Z,9.77
2023-06-20T21:58:17.099Z,9.75
2023-06-20T22:00:45.031Z,9.27
2023-06-20T22:06:36.532Z,10.32
2023-06-20T22:09:04.552Z,10.90
2023-06-20T22:11:32.412Z,10.73
2023-06-20T22:14:00.223Z,10.45
2023-06-20T22:16:28.100Z,10.90
2023-06-20T22:18:55.935Z,9.57
2023-06-20T22:21:24.091Z,10.20
2023-06-20T22:23:53.335Z,10.75
2023-06-20T22:26:21.152Z,9.02
2023-06-20T22:28:48.981Z,10.95
2023-06-20T22:31:16.934Z,11.00
2023-06-20T22:33:44.775Z,10.52
2023-06-20T22:36:12.649Z,12.30
2023-06-20T22:38:40.404Z,11.52
2023-06-20T22:41:09.655Z,9.88
2023-06-20T22:43:37.548Z,10.57
2023-06-20T22:46:05.843Z,9.45
2023-06-20T22:48:33.768Z,9.75
2023-06-20T22:51:01.628Z,10.80
2023-06-20T22:53:29.419Z,10.73
2023-06-20T22:55:57.296Z,10.52
2023-06-20T22:58:26.493Z,10.13
2023-06-20T23:00:54.296Z,10.30
2023-06-20T23:03:22.169Z,9.70
2023-06-20T23:05:50.078Z,9.38
2023-06-20T23:08:18.283Z,10.60
2023-06-20T23:10:46.139Z,10.65
2023-06-20T23:13:13.973Z,11.30
2023-06-20T23:15:43.274Z,10.18
2023-06-20T23:18:11.326Z,10.88
2023-06-20T23:20:46.429Z,10.57
2023-06-20T23:23:14.383Z,9.40
2023-06-20T23:25:46.379Z,9.52
2023-06-20T23:28:14.781Z,8.95
2023-06-20T23:30:44.103Z,10.27
2023-06-20T23:33:12.716Z,10.40
2023-06-20T23:35:40.670Z,10.25
2023-06-20T23:38:08.465Z,10.00
2023-06-20T23:40:36.356Z,10.32
2023-06-20T23:43:04.873Z,10.48
2023-06-20T23:45:32.728Z,9.32
2023-06-20T23:48:02.088Z,8.95
2023-06-20T23:50:30.036Z,10.60
2023-06-20T23:52:58.045Z,9.88
2023-06-20T23:55:26.179Z,10.50
2023-06-20T23:57:54.076Z,10.57
